sensor_id;sensor_type;location;lat;lon;timestamp;pressure;altitude;pressure_sealevel;temperature;humidity
12475;BME280;6302;42.624;23.334;2023-04-24T00:01:55;93043.00;;;10.88;100.00
12475;BME280;6302;42.624;23.334;2023-04-24T00:04:23;93045.56;;;10.91;100.00
12475;BME280;6302;42.624;23.334;2023-04-24T00:06:51;93046.66;;;10.97;100.00
12475;BME280;6302;42.624;23.334;2023-04-24T00:09:19;93024.38;;;10.91;100.00
12475;BME280;6302;42.624;23.334;2023-04-24T00:11:46;93030.28;;;11.02;100.00
12475;BME280;6302;42.624;23.334;2023-04-24T00:14:13;93031.81;;;11.03;100.00
12475;BME280;6302;42.624;23.334;2023-04-24T00:16:40;93032.59;;;11.00;100.00
12475;BME280;6302;42.624;23.334;2023-04-24T00:19:08;93021.34;;;10.93;100.00
12475;BME280;6302;42.624;23.334;2023-04-24T00:21:36;93019.91;;;10.85;100.00
12475;BME280;6302;42.624;23.334;2023-04-24T00:24:03;93017.31;;;10.81;100.00
12475;BME280;6302;42.624;23.334;2023-04-24T00:26:30;93015.38;;;10.85;100.00
12475;BME280;6302;42.624;23.334;2023-04-24T00:28:57;93005.53;;;10.86;100.00
12475;BME280;6302;42.624;23.334;2023-04-24T00:31:24;93011.56;;;10.86;100.00
12475;BME280;6302;42.624;23.334;2023-04-24T00:33:51;93014.66;;;10.81;100.00
12475;BME280;6302;42.624;23.334;2023-04-24T00:36:19;93010.16;;;10.78;100.00
12475;BME280;6302;42.624;23.334;2023-04-24T00:38:46;93015.84;;;10.77;100.00
12475;BME280;6302;42.624;23.334;2023-04-24T00:41:13;93022.22;;;10.83;100.00
12475;BME280;6302;42.624;23.334;2023-04-24T00:43:40;93020.16;;;10.67;100.00
12475;BME280;6302;42.624;23.334;2023-04-24T00:46:07;93025.53;;;10.60;100.00
12475;BME280;6302;42.624;23.334;2023-04-24T00:48:34;93023.84;;;10.43;100.00
12475;BME280;6302;42.624;23.334;2023-04-24T00:51:01;93024.69;;;10.36;100.00
12475;BME280;6302;42.624;23.334;2023-04-24T00:53:29;93024.38;;;10.31;100.00
12475;BME280;6302;42.624;23.334;2023-04-24T00:55:57;93022.88;;;10.30;100.00
12475;BME280;6302;42.624;23.334;2023-04-24T00:58:24;93022.16;;;10.26;100.00
12475;BME280;6302;42.624;23.334;2023-04-24T01:00:52;93025.50;;;10.30;100.00
12475;BME280;6302;42.624;23.334;2023-04-24T01:03:19;93032.69;;;10.33;100.00
12475;BME280;6302;42.624;23.334;2023-04-24T01:05:48;93022.53;;;10.28;100.00
12475;BME280;6302;42.624;23.334;2023-04-24T01:08:16;93020.94;;;10.34;100.00
12475;BME280;6302;42.624;23.334;2023-04-24T01:10:44;93021.28;;;10.36;100.00
12475;BME280;6302;42.624;23.334;2023-04-24T01:13:12;93026.53;;;10.39;100.00
12475;BME280;6302;42.624;23.334;2023-04-24T01:15:39;93007.97;;;10.43;100.00
12475;BME280;6302;42.624;23.334;2023-04-24T01:18:06;93006.00;;;10.47;100.00
12475;BME280;6302;42.624;23.334;2023-04-24T01:20:33;93008.28;;;10.49;100.00
12475;BME280;6302;42.624;23.334;2023-04-24T01:23:03;92986.31;;;10.52;100.00
12475;BME280;6302;42.624;23.334;2023-04-24T01:25:30;92991.63;;;10.48;100.00
12475;BME280;6302;42.624;23.334;2023-04-24T01:27:57;92986.38;;;10.44;100.00
12475;BME280;6302;42.624;23.334;2023-04-24T01:30:24;92993.16;;;10.49;100.00
12475;BME280;6302;42.624;23.334;2023-04-24T01:32:51;92985.13;;;10.53;100.00
12475;BME280;6302;42.624;23.334;2023-04-24T01:35:18;92974.94;;;10.51;100.00
12475;BME280;6302;42.624;23.334;2023-04-24T01:37:45;92961.56;;;10.31;100.00
12475;BME280;6302;42.624;23.334;2023-04-24T01:40:14;92970.22;;;10.35;100.00
12475;BME280;6302;42.624;23.334;2023-04-24T01:42:41;92982.47;;;10.22;100.00
12475;BME280;6302;42.624;23.334;2023-04-24T01:45:11;92979.88;;;10.19;100.00
12475;BME280;6302;42.624;23.334;2023-04-24T01:47:38;92989.63;;;10.25;100.00
12475;BME280;6302;42.624;23.334;2023-04-24T01:50:06;92987.03;;;10.22;100.00
12475;BME280;6302;42.624;23.334;2023-04-24T01:52:33;92971.59;;;10.17;100.00
12475;BME280;6302;42.624;23.334;2023-04-24T01:55:01;92974.25;;;10.17;100.00
12475;BME280;6302;42.624;23.334;2023-04-24T01:57:31;92978.38;;;10.18;100.00
12475;BME280;6302;42.624;23.334;2023-04-24T01:59:58;92971.97;;;10.15;100.00
12475;BME280;6302;42.624;23.334;2023-04-24T02:02:25;92962.94;;;10.09;100.00
12475;BME280;6302;42.624;23.334;2023-04-24T02:04:53;92978.47;;;10.07;100.00
12475;BME280;6302;42.624;23.334;2023-04-24T02:07:19;92964.56;;;10.00;100.00
12475;BME280;6302;42.624;23.334;2023-04-24T02:09:46;92968.00;;;9.97;100.00
12475;BME280;6302;42.624;23.334;2023-04-24T02:12:13;92963.53;;;9.90;100.00
12475;BME280;6302;42.624;23.334;2023-04-24T02:14:41;92968.09;;;9.86;100.00
12475;BME280;6302;42.624;23.334;2023-04-24T02:17:09;92964.31;;;9.87;100.00
12475;BME280;6302;42.624;23.334;2023-04-24T02:19:38;92959.06;;;9.83;100.00
12475;BME280;6302;42.624;23.334;2023-04-24T02:22:05;92959.38;;;9.89;100.00
12475;BME280;6302;42.624;23.334;2023-04-24T02:24:32;92961.34;;;9.81;100.00
12475;BME280;6302;42.624;23.334;2023-04-24T02:26:59;92964.78;;;9.78;100.00
12475;BME280;6302;42.624;23.334;2023-04-24T02:29:28;92961.03;;;9.76;100.00
12475;BME280;6302;42.624;23.334;2023-04-24T02:31:56;92969.38;;;9.74;100.00
12475;BME280;6302;42.624;23.334;2023-04-24T02:34:23;92956.22;;;9.67;100.00
12475;BME280;6302;42.624;23.334;2023-04-24T02:36:50;92954.69;;;9.66;100.00
12475;BME280;6302;42.624;23.334;2023-04-24T02:39:16;92954.34;;;9.64;100.00
12475;BME280;6302;42.624;23.334;2023-04-24T02:41:44;92948.28;;;9.67;100.00
12475;BME280;6302;42.624;23.334;2023-04-24T02:44:10;92948.66;;;9.66;100.00
12475;BME280;6302;42.624;23.334;2023-04-24T02:46:37;92949.84;;;9.61;100.00
12475;BME280;6302;42.624;23.334;2023-04-24T02:49:07;92938.56;;;9.57;100.00
12475;BME280;6302;42.624;23.334;2023-04-24T02:51:34;92945.72;;;9.57;100.00
12475;BME280;6302;42.624;23.334;2023-04-24T02:54:07;92949.91;;;9.54;100.00
12475;BME280;6302;42.624;23.334;2023-04-24T02:56:35;92955.19;;;9.54;100.00
12475;BME280;6302;42.624;23.334;2023-04-24T02:59:02;92951.88;;;9.43;100.00
12475;BME280;6302;42.624;23.334;2023-04-24T03:01:28;92939.81;;;9.42;100.00
12475;BME280;6302;42.624;23.334;2023-04-24T03:03:56;92941.31;;;9.43;100.00
12475;BME280;6302;42.624;23.334;2023-04-24T03:06:24;92948.13;;;9.44;100.00
12475;BME280;6302;42.624;23.334;2023-04-24T03:08:52;92954.94;;;9.42;100.00
12475;BME280;6302;42.624;23.334;2023-04-24T03:11:19;92950.06;;;9.40;100.00
12475;BME280;6302;42.624;23.334;2023-04-24T03:13:46;92947.41;;;9.40;100.00
12475;BME280;6302;42.624;23.334;2023-04-24T03:16:12;92960.22;;;9.42;100.00
12475;BME280;6302;42.624;23.334;2023-04-24T03:18:39;92950.84;;;9.37;100.00
12475;BME280;6302;42.624;23.334;2023-04-24T03:21:06;92959.53;;;9.34;100.00
12475;BME280;6302;42.624;23.334;2023-04-24T03:23:34;92949.03;;;9.27;100.00
12475;BME280;6302;42.624;23.334;2023-04-24T03:26:01;92945.97;;;9.29;100.00
12475;BME280;6302;42.624;23.334;2023-04-24T03:28:28;92948.97;;;9.34;100.00
12475;BME280;6302;42.624;23.334;2023-04-24T03:30:55;92961.16;;;9.21;100.00
12475;BME280;6302;42.624;23.334;2023-04-24T03:33:22;92966.84;;;9.16;100.00
12475;BME280;6302;42.624;23.334;2023-04-24T03:35:49;92964.25;;;9.12;100.00
12475;BME280;6302;42.624;23.334;2023-04-24T03:38:15;92964.97;;;9.16;100.00
12475;BME280;6302;42.624;23.334;2023-04-24T03:40:43;92967.97;;;9.18;100.00
12475;BME280;6302;42.624;23.334;2023-04-24T03:43:10;92966.81;;;9.23;100.00
12475;BME280;6302;42.624;23.334;2023-04-24T03:45:37;92953.91;;;9.29;100.00
12475;BME280;6302;42.624;23.334;2023-04-24T03:48:04;92961.84;;;9.29;100.00
12475;BME280;6302;42.624;23.334;2023-04-24T03:50:31;92961.91;;;9.25;100.00
12475;BME280;6302;42.624;23.334;2023-04-24T03:52:57;92945.69;;;9.23;100.00
12475;BME280;6302;42.624;23.334;2023-04-24T03:55:24;92949.72;;;9.35;100.00
12475;BME280;6302;42.624;23.334;2023-04-24T03:57:52;92953.41;;;9.44;100.00
12475;BME280;6302;42.624;23.334;2023-04-24T04:00:19;92961.63;;;9.53;100.00
12475;BME280;6302;42.624;23.334;2023-04-24T04:02:46;92955.47;;;9.63;100.00
12475;BME280;6302;42.624;23.334;2023-04-24T04:05:13;92959.16;;;9.73;100.00
12475;BME280;6302;42.624;23.334;2023-04-24T04:07:40;92961.75;;;9.80;100.00
12475;BME280;6302;42.624;23.334;2023-04-24T04:10:07;92965.06;;;9.88;100.00
12475;BME280;6302;42.624;23.334;2023-04-24T04:12:34;92961.97;;;9.93;100.00
12475;BME280;6302;42.624;23.334;2023-04-24T04:15:03;92967.22;;;10.00;100.00
12475;BME280;6302;42.624;23.334;2023-04-24T04:17:31;92969.44;;;10.05;100.00
12475;BME280;6302;42.624;23.334;2023-04-24T04:19:58;92962.97;;;10.06;100.00
12475;BME280;6302;42.624;23.334;2023-04-24T04:22:25;92973.50;;;10.13;100.00
12475;BME280;6302;42.624;23.334;2023-04-24T04:24:52;92966.31;;;10.10;100.00
12475;BME280;6302;42.624;23.334;2023-04-24T04:27:18;92975.03;;;10.14;100.00
12475;BME280;6302;42.624;23.334;2023-04-24T04:29:46;92968.06;;;10.27;100.00
12475;BME280;6302;42.624;23.334;2023-04-24T04:32:15;92968.75;;;10.31;100.00
12475;BME280;6302;42.624;23.334;2023-04-24T04:34:42;92962.03;;;10.23;100.00
12475;BME280;6302;42.624;23.334;2023-04-24T04:37:10;92963.66;;;10.17;100.00
12475;BME280;6302;42.624;23.334;2023-04-24T04:39:37;92980.66;;;10.16;100.00
12475;BME280;6302;42.624;23.334;2023-04-24T04:42:04;92975.38;;;10.16;100.00
12475;BME280;6302;42.624;23.334;2023-04-24T04:44:32;92980.59;;;10.23;100.00
12475;BME280;6302;42.624;23.334;2023-04-24T04:47:01;92989.19;;;10.30;100.00
12475;BME280;6302;42.624;23.334;2023-04-24T04:49:32;92986.50;;;10.34;100.00
12475;BME280;6302;42.624;23.334;2023-04-24T04:51:59;93006.09;;;10.40;100.00
12475;BME280;6302;42.624;23.334;2023-04-24T04:54:26;93003.34;;;10.51;100.00
12475;BME280;6302;42.624;23.334;2023-04-24T04:56:53;92996.59;;;10.46;100.00
12475;BME280;6302;42.624;23.334;2023-04-24T04:59:20;93001.13;;;10.45;100.00
12475;BME280;6302;42.624;23.334;2023-04-24T05:01:46;93011.41;;;10.40;100.00
12475;BME280;6302;42.624;23.334;2023-04-24T05:04:13;93005.41;;;10.36;100.00
12475;BME280;6302;42.624;23.334;2023-04-24T05:06:41;93001.16;;;10.42;100.00
12475;BME280;6302;42.624;23.334;2023-04-24T05:09:08;93005.28;;;10.47;100.00
12475;BME280;6302;42.624;23.334;2023-04-24T05:11:35;93001.44;;;10.51;100.00
12475;BME280;6302;42.624;23.334;2023-04-24T05:14:02;93005.88;;;10.58;100.00
12475;BME280;6302;42.624;23.334;2023-04-24T05:16:29;93005.47;;;10.59;100.00
12475;BME280;6302;42.624;23.334;2023-04-24T05:18:56;93012.72;;;10.55;100.00
12475;BME280;6302;42.624;23.334;2023-04-24T05:21:22;93011.53;;;10.60;100.00
12475;BME280;6302;42.624;23.334;2023-04-24T05:23:51;93005.47;;;10.59;100.00
12475;BME280;6302;42.624;23.334;2023-04-24T05:26:17;92995.94;;;10.65;100.00
12475;BME280;6302;42.624;23.334;2023-04-24T05:28:44;92997.03;;;10.71;100.00
12475;BME280;6302;42.624;23.334;2023-04-24T05:31:11;93015.47;;;10.78;100.00
12475;BME280;6302;42.624;23.334;2023-04-24T05:33:38;93004.53;;;10.76;100.00
12475;BME280;6302;42.624;23.334;2023-04-24T05:36:06;93004.88;;;10.78;100.00
12475;BME280;6302;42.624;23.334;2023-04-24T05:38:33;93015.47;;;10.78;100.00
12475;BME280;6302;42.624;23.334;2023-04-24T05:41:01;92998.75;;;10.81;100.00
12475;BME280;6302;42.624;23.334;2023-04-24T05:43:28;93010.22;;;11.01;100.00
12475;BME280;6302;42.624;23.334;2023-04-24T05:45:55;93006.09;;;11.00;100.00
12475;BME280;6302;42.624;23.334;2023-04-24T05:48:21;93013.59;;;11.05;100.00
12475;BME280;6302;42.624;23.334;2023-04-24T05:50:48;93011.81;;;11.22;100.00
12475;BME280;6302;42.624;23.334;2023-04-24T05:53:16;93005.94;;;11.34;100.00
12475;BME280;6302;42.624;23.334;2023-04-24T05:55:43;93009.69;;;11.37;100.00
12475;BME280;6302;42.624;23.334;2023-04-24T05:58:11;93009.63;;;11.63;100.00
12475;BME280;6302;42.624;23.334;2023-04-24T06:00:39;93004.88;;;11.78;100.00
12475;BME280;6302;42.624;23.334;2023-04-24T06:03:07;93007.31;;;11.92;100.00
12475;BME280;6302;42.624;23.334;2023-04-24T06:05:34;93012.25;;;11.90;100.00
12475;BME280;6302;42.624;23.334;2023-04-24T06:08:01;93003.88;;;11.92;100.00
12475;BME280;6302;42.624;23.334;2023-04-24T06:10:28;93000.69;;;12.00;100.00
12475;BME280;6302;42.624;23.334;2023-04-24T06:12:55;93016.25;;;12.21;100.00
12475;BME280;6302;42.624;23.334;2023-04-24T06:15:27;93012.50;;;12.19;100.00
12475;BME280;6302;42.624;23.334;2023-04-24T06:17:54;93010.94;;;12.21;100.00
12475;BME280;6302;42.624;23.334;2023-04-24T06:20:21;93004.06;;;12.24;100.00
12475;BME280;6302;42.624;23.334;2023-04-24T06:22:48;93014.34;;;12.42;100.00
12475;BME280;6302;42.624;23.334;2023-04-24T06:25:15;93008.91;;;12.49;100.00
12475;BME280;6302;42.624;23.334;2023-04-24T06:27:42;93014.13;;;12.52;100.00
12475;BME280;6302;42.624;23.334;2023-04-24T06:30:09;93011.25;;;12.63;100.00
12475;BME280;6302;42.624;23.334;2023-04-24T06:32:38;93005.31;;;12.75;100.00
12475;BME280;6302;42.624;23.334;2023-04-24T06:35:06;93010.47;;;12.82;100.00
12475;BME280;6302;42.624;23.334;2023-04-24T06:37:35;93016.84;;;12.68;100.00
12475;BME280;6302;42.624;23.334;2023-04-24T06:40:02;93012.66;;;12.87;100.00
12475;BME280;6302;42.624;23.334;2023-04-24T06:42:31;93015.63;;;13.09;100.00
12475;BME280;6302;42.624;23.334;2023-04-24T06:44:57;93013.44;;;13.23;100.00
12475;BME280;6302;42.624;23.334;2023-04-24T06:47:24;93020.88;;;13.28;100.00
12475;BME280;6302;42.624;23.334;2023-04-24T06:49:52;93025.97;;;13.39;100.00
12475;BME280;6302;42.624;23.334;2023-04-24T06:52:20;93013.09;;;13.37;100.00
12475;BME280;6302;42.624;23.334;2023-04-24T06:54:47;93029.81;;;13.38;100.00
12475;BME280;6302;42.624;23.334;2023-04-24T06:57:14;93037.38;;;13.39;100.00
12475;BME280;6302;42.624;23.334;2023-04-24T06:59:41;93025.59;;;13.40;98.25
12475;BME280;6302;42.624;23.334;2023-04-24T07:02:10;93030.91;;;13.56;97.06
12475;BME280;6302;42.624;23.334;2023-04-24T07:04:36;93021.41;;;13.55;95.87
12475;BME280;6302;42.624;23.334;2023-04-24T07:07:04;93012.34;;;13.53;93.41
12475;BME280;6302;42.624;23.334;2023-04-24T07:09:32;93007.25;;;13.58;94.97
12475;BME280;6302;42.624;23.334;2023-04-24T07:12:00;93010.00;;;13.87;95.37
12475;BME280;6302;42.624;23.334;2023-04-24T07:14:27;93012.31;;;14.01;94.06
12475;BME280;6302;42.624;23.334;2023-04-24T07:16:54;93006.78;;;14.08;91.42
12475;BME280;6302;42.624;23.334;2023-04-24T07:19:22;93005.34;;;14.20;87.54
12475;BME280;6302;42.624;23.334;2023-04-24T07:21:49;93011.00;;;14.22;88.90
12475;BME280;6302;42.624;23.334;2023-04-24T07:24:17;93006.81;;;14.37;83.74
12475;BME280;6302;42.624;23.334;2023-04-24T07:26:44;93012.13;;;14.37;82.62
12475;BME280;6302;42.624;23.334;2023-04-24T07:29:12;93010.06;;;14.57;82.98
12475;BME280;6302;42.624;23.334;2023-04-24T07:31:39;93011.94;;;14.73;83.83
12475;BME280;6302;42.624;23.334;2023-04-24T07:34:07;93005.63;;;14.79;81.27
12475;BME280;6302;42.624;23.334;2023-04-24T07:36:33;92996.06;;;14.94;82.18
12475;BME280;6302;42.624;23.334;2023-04-24T07:39:00;92994.44;;;14.84;79.74
12475;BME280;6302;42.624;23.334;2023-04-24T07:41:29;92996.25;;;14.75;81.91
12475;BME280;6302;42.624;23.334;2023-04-24T07:43:55;92986.97;;;14.79;83.13
12475;BME280;6302;42.624;23.334;2023-04-24T07:46:22;92986.44;;;14.84;83.30
12475;BME280;6302;42.624;23.334;2023-04-24T07:48:50;92981.22;;;14.93;80.83
12475;BME280;6302;42.624;23.334;2023-04-24T07:51:17;92986.47;;;15.10;81.76
12475;BME280;6302;42.624;23.334;2023-04-24T07:53:44;92983.78;;;15.22;81.44
12475;BME280;6302;42.624;23.334;2023-04-24T07:56:10;92987.75;;;15.43;80.81
12475;BME280;6302;42.624;23.334;2023-04-24T07:58:39;92988.59;;;15.40;76.25
12475;BME280;6302;42.624;23.334;2023-04-24T08:01:06;92991.78;;;15.35;76.43
12475;BME280;6302;42.624;23.334;2023-04-24T08:03:32;92984.63;;;15.19;77.50
12475;BME280;6302;42.624;23.334;2023-04-24T08:05:59;92988.81;;;15.33;78.94
12475;BME280;6302;42.624;23.334;2023-04-24T08:08:26;92990.75;;;15.45;75.20
12475;BME280;6302;42.624;23.334;2023-04-24T08:10:53;92985.47;;;15.41;76.08
12475;BME280;6302;42.624;23.334;2023-04-24T08:13:20;92980.69;;;15.49;77.33
12475;BME280;6302;42.624;23.334;2023-04-24T08:15:48;92985.56;;;15.63;76.35
12475;BME280;6302;42.624;23.334;2023-04-24T08:18:15;92985.13;;;15.77;76.76
12475;BME280;6302;42.624;23.334;2023-04-24T08:20:42;92977.19;;;15.86;73.98
12475;BME280;6302;42.624;23.334;2023-04-24T08:23:09;92978.28;;;15.76;74.83
12475;BME280;6302;42.624;23.334;2023-04-24T08:25:36;92980.19;;;15.88;75.99
12475;BME280;6302;42.624;23.334;2023-04-24T08:28:02;92975.81;;;16.16;76.85
12475;BME280;6302;42.624;23.334;2023-04-24T08:30:30;92972.88;;;16.45;73.97
12475;BME280;6302;42.624;23.334;2023-04-24T08:32:58;92972.09;;;16.57;71.34
12475;BME280;6302;42.624;23.334;2023-04-24T08:35:25;92967.09;;;16.59;72.91
12475;BME280;6302;42.624;23.334;2023-04-24T08:37:52;92962.13;;;16.79;72.35
12475;BME280;6302;42.624;23.334;2023-04-24T08:40:23;92967.25;;;16.64;68.79
12475;BME280;6302;42.624;23.334;2023-04-24T08:42:54;92957.69;;;16.54;67.60
12475;BME280;6302;42.624;23.334;2023-04-24T08:45:21;92952.38;;;16.42;70.02
12475;BME280;6302;42.624;23.334;2023-04-24T08:47:48;92949.09;;;16.59;70.37
12475;BME280;6302;42.624;23.334;2023-04-24T08:50:17;92947.31;;;16.56;69.76
12475;BME280;6302;42.624;23.334;2023-04-24T08:52:44;92945.06;;;16.55;69.81
12475;BME280;6302;42.624;23.334;2023-04-24T08:55:11;92941.81;;;16.60;68.97
12475;BME280;6302;42.624;23.334;2023-04-24T08:57:37;92941.44;;;16.70;69.73
12475;BME280;6302;42.624;23.334;2023-04-24T09:00:07;92934.88;;;17.02;69.40
12475;BME280;6302;42.624;23.334;2023-04-24T09:02:34;92933.56;;;17.07;67.58
12475;BME280;6302;42.624;23.334;2023-04-24T09:05:01;92928.19;;;17.07;66.66
12475;BME280;6302;42.624;23.334;2023-04-24T09:07:33;92926.28;;;17.07;67.82
12475;BME280;6302;42.624;23.334;2023-04-24T09:10:04;92927.41;;;17.28;67.35
12475;BME280;6302;42.624;23.334;2023-04-24T09:12:30;92929.34;;;17.36;65.90
12475;BME280;6302;42.624;23.334;2023-04-24T09:14:58;92926.81;;;17.33;66.45
12475;BME280;6302;42.624;23.334;2023-04-24T09:17:25;92929.91;;;17.22;68.10
12475;BME280;6302;42.624;23.334;2023-04-24T09:19:53;92911.28;;;17.19;66.93
12475;BME280;6302;42.624;23.334;2023-04-24T09:22:21;92910.56;;;17.27;66.72
12475;BME280;6302;42.624;23.334;2023-04-24T09:24:59;92912.09;;;17.37;66.63
12475;BME280;6302;42.624;23.334;2023-04-24T09:27:28;92913.91;;;17.49;66.17
12475;BME280;6302;42.624;23.334;2023-04-24T09:29:56;92905.59;;;17.66;65.05
12475;BME280;6302;42.624;23.334;2023-04-24T09:32:23;92904.41;;;17.76;63.65
12475;BME280;6302;42.624;23.334;2023-04-24T09:35:05;92897.13;;;17.67;65.83
12475;BME280;6302;42.624;23.334;2023-04-24T09:37:35;92892.22;;;17.75;64.79
12475;BME280;6302;42.624;23.334;2023-04-24T09:40:14;92891.34;;;17.87;65.98
12475;BME280;6302;42.624;23.334;2023-04-24T09:42:46;92889.69;;;17.98;64.06
12475;BME280;6302;42.624;23.334;2023-04-24T09:45:13;92893.38;;;18.10;62.28
12475;BME280;6302;42.624;23.334;2023-04-24T09:47:40;92884.47;;;18.13;64.21
12475;BME280;6302;42.624;23.334;2023-04-24T09:50:12;92884.13;;;18.47;61.76
12475;BME280;6302;42.624;23.334;2023-04-24T09:52:40;92882.31;;;18.62;60.44
12475;BME280;6302;42.624;23.334;2023-04-24T09:55:16;92879.09;;;18.82;59.60
12475;BME280;6302;42.624;23.334;2023-04-24T09:57:48;92883.59;;;19.09;58.02
12475;BME280;6302;42.624;23.334;2023-04-24T10:00:18;92874.50;;;19.15;58.47
12475;BME280;6302;42.624;23.334;2023-04-24T10:02:50;92871.56;;;19.37;59.45
12475;BME280;6302;42.624;23.334;2023-04-24T10:05:17;92871.41;;;19.31;55.20
12475;BME280;6302;42.624;23.334;2023-04-24T10:07:45;92862.38;;;19.20;55.94
12475;BME280;6302;42.624;23.334;2023-04-24T10:10:13;92858.59;;;19.26;56.32
12475;BME280;6302;42.624;23.334;2023-04-24T10:12:40;92863.13;;;19.20;55.03
12475;BME280;6302;42.624;23.334;2023-04-24T10:15:10;92858.88;;;19.05;54.28
12475;BME280;6302;42.624;23.334;2023-04-24T10:17:39;92844.81;;;19.10;56.39
12475;BME280;6302;42.624;23.334;2023-04-24T10:20:07;92844.38;;;19.35;57.07
12475;BME280;6302;42.624;23.334;2023-04-24T10:22:35;92841.16;;;19.22;53.47
12475;BME280;6302;42.624;23.334;2023-04-24T10:25:04;92837.38;;;19.28;55.74
12475;BME280;6302;42.624;23.334;2023-04-24T10:27:34;92828.88;;;19.30;56.13
12475;BME280;6302;42.624;23.334;2023-04-24T10:30:02;92825.59;;;19.26;53.78
12475;BME280;6302;42.624;23.334;2023-04-24T10:32:29;92824.22;;;19.16;54.15
12475;BME280;6302;42.624;23.334;2023-04-24T10:34:56;92828.28;;;19.02;53.24
12475;BME280;6302;42.624;23.334;2023-04-24T10:37:23;92820.13;;;18.97;54.25
12475;BME280;6302;42.624;23.334;2023-04-24T10:39:51;92829.03;;;19.03;53.84
12475;BME280;6302;42.624;23.334;2023-04-24T10:42:20;92822.56;;;19.42;53.75
12475;BME280;6302;42.624;23.334;2023-04-24T10:44:48;92815.53;;;19.44;51.19
12475;BME280;6302;42.624;23.334;2023-04-24T10:47:15;92814.25;;;19.55;52.37
12475;BME280;6302;42.624;23.334;2023-04-24T10:49:42;92818.75;;;19.72;51.45
12475;BME280;6302;42.624;23.334;2023-04-24T10:52:09;92813.06;;;19.70;50.71
12475;BME280;6302;42.624;23.334;2023-04-24T10:54:42;92809.97;;;19.86;48.39
12475;BME280;6302;42.624;23.334;2023-04-24T10:57:27;92794.38;;;19.90;50.25
12475;BME280;6302;42.624;23.334;2023-04-24T11:00:18;92806.88;;;19.64;48.61
12475;BME280;6302;42.624;23.334;2023-04-24T11:02:46;92796.75;;;19.59;49.70
12475;BME280;6302;42.624;23.334;2023-04-24T11:05:16;92795.19;;;19.67;49.75
12475;BME280;6302;42.624;23.334;2023-04-24T11:08:10;92795.16;;;19.53;47.52
12475;BME280;6302;42.624;23.334;2023-04-24T11:10:39;92789.41;;;19.45;46.65
12475;BME280;6302;42.624;23.334;2023-04-24T11:13:06;92795.63;;;19.51;47.05
12475;BME280;6302;42.624;23.334;2023-04-24T11:15:35;92803.31;;;19.34;46.60
12475;BME280;6302;42.624;23.334;2023-04-24T11:18:02;92803.47;;;19.40;47.38
12475;BME280;6302;42.624;23.334;2023-04-24T11:20:28;92799.56;;;19.41;46.98
12475;BME280;6302;42.624;23.334;2023-04-24T11:23:03;92802.66;;;19.48;47.41
12475;BME280;6302;42.624;23.334;2023-04-24T11:25:32;92801.63;;;19.46;47.42
12475;BME280;6302;42.624;23.334;2023-04-24T11:28:14;92808.16;;;19.30;48.94
12475;BME280;6302;42.624;23.334;2023-04-24T11:30:43;92818.38;;;19.17;53.20
12475;BME280;6302;42.624;23.334;2023-04-24T11:33:11;92819.91;;;19.09;57.23
12475;BME280;6302;42.624;23.334;2023-04-24T11:35:40;92827.88;;;18.95;55.96
12475;BME280;6302;42.624;23.334;2023-04-24T11:38:07;92844.25;;;18.73;63.60
12475;BME280;6302;42.624;23.334;2023-04-24T11:40:34;92850.75;;;18.48;77.77
12475;BME280;6302;42.624;23.334;2023-04-24T11:43:00;92843.91;;;18.29;87.44
12475;BME280;6302;42.624;23.334;2023-04-24T11:45:29;92828.91;;;17.95;90.81
12475;BME280;6302;42.624;23.334;2023-04-24T11:47:58;92841.00;;;17.82;92.92
12475;BME280;6302;42.624;23.334;2023-04-24T11:50:26;92836.81;;;17.53;98.14
12475;BME280;6302;42.624;23.334;2023-04-24T11:52:54;92831.13;;;17.33;98.09
12475;BME280;6302;42.624;23.334;2023-04-24T11:55:28;92817.72;;;17.24;96.34
12475;BME280;6302;42.624;23.334;2023-04-24T11:57:56;92799.75;;;17.16;99.88
12475;BME280;6302;42.624;23.334;2023-04-24T12:00:25;92784.97;;;17.02;96.43
12475;BME280;6302;42.624;23.334;2023-04-24T12:03:05;92766.81;;;16.88;100.00
12475;BME280;6302;42.624;23.334;2023-04-24T12:05:32;92777.94;;;16.86;95.45
12475;BME280;6302;42.624;23.334;2023-04-24T12:07:59;92769.22;;;16.95;94.92
12475;BME280;6302;42.624;23.334;2023-04-24T12:10:28;92764.03;;;17.10;94.91
12475;BME280;6302;42.624;23.334;2023-04-24T12:12:56;92767.28;;;17.05;95.97
12475;BME280;6302;42.624;23.334;2023-04-24T12:15:24;92767.91;;;17.18;91.23
12475;BME280;6302;42.624;23.334;2023-04-24T12:17:51;92757.34;;;17.32;86.57
12475;BME280;6302;42.624;23.334;2023-04-24T12:20:24;92761.50;;;17.33;78.01
12475;BME280;6302;42.624;23.334;2023-04-24T12:22:52;92764.31;;;17.39;77.33
12475;BME280;6302;42.624;23.334;2023-04-24T12:25:21;92770.13;;;17.28;75.82
12475;BME280;6302;42.624;23.334;2023-04-24T12:27:53;92760.88;;;17.11;75.22
12475;BME280;6302;42.624;23.334;2023-04-24T12:30:25;92753.75;;;16.99;80.58
12475;BME280;6302;42.624;23.334;2023-04-24T12:32:52;92749.09;;;16.81;88.47
12475;BME280;6302;42.624;23.334;2023-04-24T12:35:23;92728.72;;;16.75;92.14
12475;BME280;6302;42.624;23.334;2023-04-24T12:37:50;92728.56;;;16.60;97.17
12475;BME280;6302;42.624;23.334;2023-04-24T12:40:18;92727.63;;;16.54;92.54
12475;BME280;6302;42.624;23.334;2023-04-24T12:42:47;92724.13;;;16.66;92.90
12475;BME280;6302;42.624;23.334;2023-04-24T12:45:16;92722.22;;;16.85;91.80
12475;BME280;6302;42.624;23.334;2023-04-24T12:47:44;92727.84;;;16.96;92.23
12475;BME280;6302;42.624;23.334;2023-04-24T12:50:13;92709.91;;;17.06;93.42
12475;BME280;6302;42.624;23.334;2023-04-24T12:52:42;92707.06;;;17.18;91.65
12475;BME280;6302;42.624;23.334;2023-04-24T12:55:09;92702.56;;;17.33;90.30
12475;BME280;6302;42.624;23.334;2023-04-24T12:57:38;92683.38;;;17.53;82.68
12475;BME280;6302;42.624;23.334;2023-04-24T13:00:06;92685.00;;;17.69;78.96